Banquereau - northwestern half: Past 24 Hour Conditions

 

Stephenville Airport

01:30 PM NDT 29 August 2014
This table is a summary of hourly weather conditions for the past 24 hours.
Date / Time
(NDT)
Wind(knots) Conditions Visibility(km) Pressure(kPa) Air tempC) Relative humidity(%) Dew pointC)
29 August 2014
13:30 E 8 Partly Cloudy 24 101.3 16 45 4
12:30 NE 10 Mainly Sunny 24 101.3 14 52 4
11:30 ENE 17 Partly Cloudy 24 101.3 12 56 4
10:30 NE 15 Partly Cloudy 24 101.2 12 61 5
9:30 NE 15 Cloudy 24 101.2 11 64 4
8:30 NNE 22 Cloudy 24 101.1 10 68 5
7:30 NE 15 gust 21 Cloudy 24 101.0 10 72 5
6:30 NE 15 gust 24 Cloudy 24 100.9 10 74 6
5:30 NE 13 gust 19 Cloudy 24 100.8 10 74 6
4:30 NE 15 gust 20 Cloudy 24 100.7 11 74 6
3:30 NE 14 Light Rain 24 100.7 10 76 6
2:30 ENE 16 Cloudy 24 100.7 11 76 7
1:30 ENE 17 gust 24 Light Rain 24 100.7 11 74 7
0:30 NE 17 Light Rain 24 100.7 11 77 8
28 August 2014
23:30 ENE 18 Light Rain 24 100.7 12 79 8
22:30 ENE 16 gust 21 Light Rain 24 100.7 12 77 8
21:30 ENE 18 gust 24 Light Rain 24 100.7 12 76 8
20:30 ENE 17 gust 24 Light Rain 24 100.7 13 75 9
19:30 ENE 13 gust 23 Light Rain 24 100.7 13 77 9
18:30 ENE 15 gust 23 Light Rain 24 100.6 14 80 10
17:30 NE 14 gust 19 Light Rain 19 100.6 13 83 11
16:30 ENE 16 Light Rainshower 19 100.7 14 81 10
15:30 ENE 15 gust 22 Cloudy 24 100.7 15 72 10
14:30 E 15 gust 23 Cloudy 24 100.7 16 69 10
13:30 E 15 gust 21 Cloudy 24 100.7 16 68 10
 
Map of Atlantic - Newfoundland marine weather areas Southwestern Grand Banks - 44138 Banquereau - 44139 Tail of the Bank - 44140 Nickerson Bank - 44251 Northeast Burgeo Bank - 44255 Blanc-Sablon Airport Cap Whittle Chevery Natashquan Airport Heath Point Miscou Island Grand Étang Ingonish Beach North Mountain St.Paul Island J.A. Douglas McCurdy Sydney Airport Charlottetown Airport East Point North Cape Argentia Bonavista Burgeo Cape Race Corner Brook Daniel's Harbour Englee Ferolle Point La Scie Port aux Basques Rocky Harbour Sagona Island St. Anthony Airport St. John's Int'l Airport St. Lawrence Stephenville Airport Twillingate Winterland Wreckhouse Cartwright Airport Mary's Harbour Grates Cove Pool's Island Marticot Island Long Pond Îles de la Madeleine Airport
Legend: buoyBuoy land stationLand Station